sensor_id;sensor_type;location;lat;lon;timestamp;P1;durP1;ratioP1;P2;durP2;ratioP2
8584;SDS011;7180;52.742;11.420;2023-07-09T00:01:58;8.67;;;8.17;;
8584;SDS011;7180;52.742;11.420;2023-07-09T00:04:24;7.93;;;7.50;;
8584;SDS011;7180;52.742;11.420;2023-07-09T00:06:49;7.80;;;7.30;;
8584;SDS011;7180;52.742;11.420;2023-07-09T00:09:15;8.13;;;7.43;;
8584;SDS011;7180;52.742;11.420;2023-07-09T00:11:43;8.30;;;7.80;;
8584;SDS011;7180;52.742;11.420;2023-07-09T00:14:10;8.00;;;7.50;;
8584;SDS011;7180;52.742;11.420;2023-07-09T00:16:37;8.17;;;7.57;;
8584;SDS011;7180;52.742;11.420;2023-07-09T00:19:04;8.10;;;7.70;;
8584;SDS011;7180;52.742;11.420;2023-07-09T00:21:30;8.47;;;7.97;;
8584;SDS011;7180;52.742;11.420;2023-07-09T00:24:00;8.43;;;7.87;;
8584;SDS011;7180;52.742;11.420;2023-07-09T00:26:30;8.23;;;7.63;;
8584;SDS011;7180;52.742;11.420;2023-07-09T00:28:56;8.13;;;7.53;;
8584;SDS011;7180;52.742;11.420;2023-07-09T00:31:22;8.50;;;8.00;;
8584;SDS011;7180;52.742;11.420;2023-07-09T00:33:48;8.50;;;8.00;;
8584;SDS011;7180;52.742;11.420;2023-07-09T00:36:27;8.70;;;8.10;;
8584;SDS011;7180;52.742;11.420;2023-07-09T00:38:54;8.47;;;7.90;;
8584;SDS011;7180;52.742;11.420;2023-07-09T00:41:21;8.57;;;8.07;;
8584;SDS011;7180;52.742;11.420;2023-07-09T00:43:48;8.33;;;7.73;;
8584;SDS011;7180;52.742;11.420;2023-07-09T00:48:51;8.57;;;8.07;;
8584;SDS011;7180;52.742;11.420;2023-07-09T00:51:23;8.33;;;7.73;;
8584;SDS011;7180;52.742;11.420;2023-07-09T00:53:52;8.57;;;8.07;;
8584;SDS011;7180;52.742;11.420;2023-07-09T00:56:27;9.00;;;8.40;;
8584;SDS011;7180;52.742;11.420;2023-07-09T00:58:57;8.97;;;8.37;;
8584;SDS011;7180;52.742;11.420;2023-07-09T01:01:29;8.80;;;8.30;;
8584;SDS011;7180;52.742;11.420;2023-07-09T01:03:56;8.97;;;8.47;;
8584;SDS011;7180;52.742;11.420;2023-07-09T01:06:26;8.93;;;8.33;;
8584;SDS011;7180;52.742;11.420;2023-07-09T01:08:57;9.27;;;8.67;;
8584;SDS011;7180;52.742;11.420;2023-07-09T01:11:25;9.03;;;8.53;;
8584;SDS011;7180;52.742;11.420;2023-07-09T01:13:51;8.80;;;8.30;;
8584;SDS011;7180;52.742;11.420;2023-07-09T01:16:19;9.00;;;8.40;;
8584;SDS011;7180;52.742;11.420;2023-07-09T01:18:49;9.20;;;8.60;;
8584;SDS011;7180;52.742;11.420;2023-07-09T01:21:17;9.40;;;8.80;;
8584;SDS011;7180;52.742;11.420;2023-07-09T01:23:43;9.50;;;8.90;;
8584;SDS011;7180;52.742;11.420;2023-07-09T01:26:10;8.93;;;8.37;;
8584;SDS011;7180;52.742;11.420;2023-07-09T01:28:39;8.83;;;8.30;;
8584;SDS011;7180;52.742;11.420;2023-07-09T01:31:07;8.80;;;8.30;;
8584;SDS011;7180;52.742;11.420;2023-07-09T01:33:32;9.43;;;8.70;;
8584;SDS011;7180;52.742;11.420;2023-07-09T01:35:57;8.80;;;8.30;;
8584;SDS011;7180;52.742;11.420;2023-07-09T01:38:25;9.07;;;8.47;;
8584;SDS011;7180;52.742;11.420;2023-07-09T01:40:55;9.40;;;8.70;;
8584;SDS011;7180;52.742;11.420;2023-07-09T01:43:24;9.17;;;8.63;;
8584;SDS011;7180;52.742;11.420;2023-07-09T01:45:50;9.00;;;8.50;;
8584;SDS011;7180;52.742;11.420;2023-07-09T01:48:16;9.20;;;8.70;;
8584;SDS011;7180;52.742;11.420;2023-07-09T01:50:42;9.10;;;8.50;;
8584;SDS011;7180;52.742;11.420;2023-07-09T01:53:11;8.73;;;8.23;;
8584;SDS011;7180;52.742;11.420;2023-07-09T01:55:38;9.23;;;8.63;;
8584;SDS011;7180;52.742;11.420;2023-07-09T01:58:04;9.07;;;8.47;;
8584;SDS011;7180;52.742;11.420;2023-07-09T02:00:33;8.97;;;8.37;;
8584;SDS011;7180;52.742;11.420;2023-07-09T02:03:02;9.60;;;9.00;;
8584;SDS011;7180;52.742;11.420;2023-07-09T02:05:30;9.60;;;8.80;;
8584;SDS011;7180;52.742;11.420;2023-07-09T02:07:56;9.63;;;8.93;;
8584;SDS011;7180;52.742;11.420;2023-07-09T02:10:22;9.27;;;8.77;;
8584;SDS011;7180;52.742;11.420;2023-07-09T02:12:47;8.70;;;8.17;;
8584;SDS011;7180;52.742;11.420;2023-07-09T02:15:13;9.37;;;8.67;;
8584;SDS011;7180;52.742;11.420;2023-07-09T02:17:39;9.53;;;8.87;;
8584;SDS011;7180;52.742;11.420;2023-07-09T02:20:06;9.23;;;8.63;;
8584;SDS011;7180;52.742;11.420;2023-07-09T02:22:35;9.40;;;8.80;;
8584;SDS011;7180;52.742;11.420;2023-07-09T02:25:02;9.50;;;8.93;;
8584;SDS011;7180;52.742;11.420;2023-07-09T02:27:28;9.50;;;9.00;;
8584;SDS011;7180;52.742;11.420;2023-07-09T02:29:53;9.33;;;8.63;;
8584;SDS011;7180;52.742;11.420;2023-07-09T02:32:20;9.47;;;8.97;;
8584;SDS011;7180;52.742;11.420;2023-07-09T02:34:47;9.17;;;8.57;;
8584;SDS011;7180;52.742;11.420;2023-07-09T02:37:18;9.50;;;8.70;;
8584;SDS011;7180;52.742;11.420;2023-07-09T02:39:45;9.33;;;8.73;;
8584;SDS011;7180;52.742;11.420;2023-07-09T02:42:10;9.17;;;8.57;;
8584;SDS011;7180;52.742;11.420;2023-07-09T02:44:37;9.13;;;8.43;;
8584;SDS011;7180;52.742;11.420;2023-07-09T02:47:03;8.73;;;8.23;;
8584;SDS011;7180;52.742;11.420;2023-07-09T02:49:28;9.67;;;8.93;;
8584;SDS011;7180;52.742;11.420;2023-07-09T02:51:54;9.77;;;8.97;;
8584;SDS011;7180;52.742;11.420;2023-07-09T02:54:19;8.97;;;8.37;;
8584;SDS011;7180;52.742;11.420;2023-07-09T02:56:44;9.73;;;9.03;;
8584;SDS011;7180;52.742;11.420;2023-07-09T02:59:10;9.90;;;9.10;;
8584;SDS011;7180;52.742;11.420;2023-07-09T03:01:36;9.77;;;9.03;;
8584;SDS011;7180;52.742;11.420;2023-07-09T03:04:01;9.47;;;8.87;;
8584;SDS011;7180;52.742;11.420;2023-07-09T03:06:28;9.47;;;8.87;;
8584;SDS011;7180;52.742;11.420;2023-07-09T03:08:54;9.73;;;9.00;;
8584;SDS011;7180;52.742;11.420;2023-07-09T03:11:20;9.70;;;9.00;;
8584;SDS011;7180;52.742;11.420;2023-07-09T03:13:46;9.30;;;8.70;;
8584;SDS011;7180;52.742;11.420;2023-07-09T03:16:13;10.00;;;9.20;;
8584;SDS011;7180;52.742;11.420;2023-07-09T03:18:39;10.03;;;9.33;;
8584;SDS011;7180;52.742;11.420;2023-07-09T03:21:04;9.70;;;9.10;;
8584;SDS011;7180;52.742;11.420;2023-07-09T03:23:30;9.67;;;8.93;;
8584;SDS011;7180;52.742;11.420;2023-07-09T03:25:56;9.90;;;9.10;;
8584;SDS011;7180;52.742;11.420;2023-07-09T03:28:22;10.03;;;9.43;;
8584;SDS011;7180;52.742;11.420;2023-07-09T03:30:48;10.10;;;9.50;;
8584;SDS011;7180;52.742;11.420;2023-07-09T03:33:15;9.80;;;9.10;;
8584;SDS011;7180;52.742;11.420;2023-07-09T03:35:41;10.07;;;9.40;;
8584;SDS011;7180;52.742;11.420;2023-07-09T03:38:08;10.30;;;9.60;;
8584;SDS011;7180;52.742;11.420;2023-07-09T03:40:35;10.03;;;9.53;;
8584;SDS011;7180;52.742;11.420;2023-07-09T03:43:02;10.30;;;9.60;;
8584;SDS011;7180;52.742;11.420;2023-07-09T03:45:27;10.07;;;9.47;;
8584;SDS011;7180;52.742;11.420;2023-07-09T03:47:52;10.33;;;9.63;;
8584;SDS011;7180;52.742;11.420;2023-07-09T03:50:17;10.13;;;9.43;;
8584;SDS011;7180;52.742;11.420;2023-07-09T03:52:43;10.37;;;9.67;;
8584;SDS011;7180;52.742;11.420;2023-07-09T03:55:08;10.00;;;9.40;;
8584;SDS011;7180;52.742;11.420;2023-07-09T03:57:34;10.50;;;9.80;;
8584;SDS011;7180;52.742;11.420;2023-07-09T04:00:00;10.40;;;9.70;;
8584;SDS011;7180;52.742;11.420;2023-07-09T04:02:27;9.70;;;9.00;;
8584;SDS011;7180;52.742;11.420;2023-07-09T04:04:53;9.53;;;8.93;;
8584;SDS011;7180;52.742;11.420;2023-07-09T04:07:18;9.63;;;8.93;;
8584;SDS011;7180;52.742;11.420;2023-07-09T04:09:44;9.90;;;9.20;;
8584;SDS011;7180;52.742;11.420;2023-07-09T04:12:09;10.30;;;9.60;;
8584;SDS011;7180;52.742;11.420;2023-07-09T04:14:35;9.77;;;9.17;;
8584;SDS011;7180;52.742;11.420;2023-07-09T04:17:01;10.03;;;9.33;;
8584;SDS011;7180;52.742;11.420;2023-07-09T04:19:26;9.87;;;9.17;;
8584;SDS011;7180;52.742;11.420;2023-07-09T04:21:52;9.53;;;8.93;;
8584;SDS011;7180;52.742;11.420;2023-07-09T04:24:18;9.33;;;8.73;;
8584;SDS011;7180;52.742;11.420;2023-07-09T04:26:44;9.63;;;9.03;;
8584;SDS011;7180;52.742;11.420;2023-07-09T04:29:10;9.70;;;9.10;;
8584;SDS011;7180;52.742;11.420;2023-07-09T04:31:36;9.73;;;9.13;;
8584;SDS011;7180;52.742;11.420;2023-07-09T04:34:02;10.10;;;9.40;;
8584;SDS011;7180;52.742;11.420;2023-07-09T04:36:28;9.60;;;8.90;;
8584;SDS011;7180;52.742;11.420;2023-07-09T04:38:53;9.70;;;9.10;;
8584;SDS011;7180;52.742;11.420;2023-07-09T04:41:18;10.13;;;9.47;;
8584;SDS011;7180;52.742;11.420;2023-07-09T04:43:44;9.87;;;9.30;;
8584;SDS011;7180;52.742;11.420;2023-07-09T04:46:09;8.87;;;8.17;;
8584;SDS011;7180;52.742;11.420;2023-07-09T04:48:34;9.10;;;8.50;;
8584;SDS011;7180;52.742;11.420;2023-07-09T04:51:00;9.50;;;8.90;;
8584;SDS011;7180;52.742;11.420;2023-07-09T04:53:25;9.53;;;8.87;;
8584;SDS011;7180;52.742;11.420;2023-07-09T04:55:51;9.70;;;9.10;;
8584;SDS011;7180;52.742;11.420;2023-07-09T04:58:17;9.17;;;8.57;;
8584;SDS011;7180;52.742;11.420;2023-07-09T05:00:43;8.90;;;8.13;;
8584;SDS011;7180;52.742;11.420;2023-07-09T05:03:08;8.97;;;8.27;;
8584;SDS011;7180;52.742;11.420;2023-07-09T05:05:33;8.90;;;8.43;;
8584;SDS011;7180;52.742;11.420;2023-07-09T05:07:59;9.30;;;8.80;;
8584;SDS011;7180;52.742;11.420;2023-07-09T05:10:25;10.07;;;9.47;;
8584;SDS011;7180;52.742;11.420;2023-07-09T05:12:51;10.40;;;9.80;;
8584;SDS011;7180;52.742;11.420;2023-07-09T05:15:18;10.50;;;9.80;;
8584;SDS011;7180;52.742;11.420;2023-07-09T05:17:44;9.45;;;8.80;;
8584;SDS011;7180;52.742;11.420;2023-07-09T05:20:11;8.60;;;8.10;;
8584;SDS011;7180;52.742;11.420;2023-07-09T05:22:36;9.38;;;8.70;;
8584;SDS011;7180;52.742;11.420;2023-07-09T05:25:01;10.88;;;10.27;;
8584;SDS011;7180;52.742;11.420;2023-07-09T05:27:27;10.98;;;10.27;;
8584;SDS011;7180;52.742;11.420;2023-07-09T05:29:52;10.35;;;9.63;;
8584;SDS011;7180;52.742;11.420;2023-07-09T05:32:17;10.30;;;9.70;;
8584;SDS011;7180;52.742;11.420;2023-07-09T05:34:43;10.10;;;9.48;;
8584;SDS011;7180;52.742;11.420;2023-07-09T05:37:08;9.50;;;8.90;;
8584;SDS011;7180;52.742;11.420;2023-07-09T05:39:33;9.55;;;9.05;;
8584;SDS011;7180;52.742;11.420;2023-07-09T05:41:59;9.52;;;8.93;;
8584;SDS011;7180;52.742;11.420;2023-07-09T05:44:25;9.15;;;8.65;;
8584;SDS011;7180;52.742;11.420;2023-07-09T05:46:50;9.70;;;9.00;;
8584;SDS011;7180;52.742;11.420;2023-07-09T05:49:15;9.80;;;9.02;;
8584;SDS011;7180;52.742;11.420;2023-07-09T05:51:40;9.63;;;9.10;;
8584;SDS011;7180;52.742;11.420;2023-07-09T05:54:06;9.40;;;8.80;;
8584;SDS011;7180;52.742;11.420;2023-07-09T05:56:31;9.32;;;8.82;;
8584;SDS011;7180;52.742;11.420;2023-07-09T05:58:57;9.90;;;9.20;;
8584;SDS011;7180;52.742;11.420;2023-07-09T06:01:22;9.73;;;9.13;;
8584;SDS011;7180;52.742;11.420;2023-07-09T06:03:48;10.10;;;9.50;;
8584;SDS011;7180;52.742;11.420;2023-07-09T06:06:14;9.98;;;9.27;;
8584;SDS011;7180;52.742;11.420;2023-07-09T06:08:40;9.70;;;9.10;;
8584;SDS011;7180;52.742;11.420;2023-07-09T06:11:05;10.10;;;9.50;;
8584;SDS011;7180;52.742;11.420;2023-07-09T06:13:31;10.82;;;10.00;;
8584;SDS011;7180;52.742;11.420;2023-07-09T06:15:57;9.90;;;9.20;;
8584;SDS011;7180;52.742;11.420;2023-07-09T06:18:23;10.75;;;10.05;;
8584;SDS011;7180;52.742;11.420;2023-07-09T06:20:50;10.45;;;9.82;;
8584;SDS011;7180;52.742;11.420;2023-07-09T06:23:17;10.95;;;10.15;;
8584;SDS011;7180;52.742;11.420;2023-07-09T06:25:44;11.00;;;10.25;;
8584;SDS011;7180;52.742;11.420;2023-07-09T06:28:12;10.73;;;10.10;;
8584;SDS011;7180;52.742;11.420;2023-07-09T06:30:41;10.57;;;9.88;;
8584;SDS011;7180;52.742;11.420;2023-07-09T06:33:07;10.40;;;9.80;;
8584;SDS011;7180;52.742;11.420;2023-07-09T06:35:33;10.52;;;9.93;;
8584;SDS011;7180;52.742;11.420;2023-07-09T06:38:00;10.45;;;9.73;;
8584;SDS011;7180;52.742;11.420;2023-07-09T06:40:25;10.40;;;9.77;;
8584;SDS011;7180;52.742;11.420;2023-07-09T06:42:50;10.32;;;9.73;;
8584;SDS011;7180;52.742;11.420;2023-07-09T06:45:16;10.60;;;9.90;;
8584;SDS011;7180;52.742;11.420;2023-07-09T06:47:41;10.13;;;9.43;;
8584;SDS011;7180;52.742;11.420;2023-07-09T06:50:07;10.13;;;9.52;;
8584;SDS011;7180;52.742;11.420;2023-07-09T06:52:32;10.25;;;9.63;;
8584;SDS011;7180;52.742;11.420;2023-07-09T06:54:58;9.85;;;9.25;;
8584;SDS011;7180;52.742;11.420;2023-07-09T06:57:23;10.38;;;9.77;;
8584;SDS011;7180;52.742;11.420;2023-07-09T06:59:48;10.15;;;9.55;;
8584;SDS011;7180;52.742;11.420;2023-07-09T07:02:13;10.50;;;9.90;;
8584;SDS011;7180;52.742;11.420;2023-07-09T07:04:39;10.38;;;9.80;;
8584;SDS011;7180;52.742;11.420;2023-07-09T07:07:04;10.38;;;9.68;;
8584;SDS011;7180;52.742;11.420;2023-07-09T07:09:30;10.30;;;9.70;;
8584;SDS011;7180;52.742;11.420;2023-07-09T07:11:55;10.95;;;10.15;;
8584;SDS011;7180;52.742;11.420;2023-07-09T07:14:20;10.15;;;9.55;;
8584;SDS011;7180;52.742;11.420;2023-07-09T07:16:46;11.10;;;10.40;;
8584;SDS011;7180;52.742;11.420;2023-07-09T07:19:11;10.38;;;9.68;;
8584;SDS011;7180;52.742;11.420;2023-07-09T07:21:36;10.93;;;10.30;;
8584;SDS011;7180;52.742;11.420;2023-07-09T07:24:01;10.73;;;9.95;;
8584;SDS011;7180;52.742;11.420;2023-07-09T07:26:28;10.60;;;10.00;;
8584;SDS011;7180;52.742;11.420;2023-07-09T07:28:53;10.45;;;9.85;;
8584;SDS011;7180;52.742;11.420;2023-07-09T07:31:19;10.77;;;9.98;;
8584;SDS011;7180;52.742;11.420;2023-07-09T07:33:44;10.65;;;9.95;;
8584;SDS011;7180;52.742;11.420;2023-07-09T07:36:10;10.68;;;10.05;;
8584;SDS011;7180;52.742;11.420;2023-07-09T07:38:35;10.90;;;10.20;;
8584;SDS011;7180;52.742;11.420;2023-07-09T07:41:01;11.60;;;10.90;;
8584;SDS011;7180;52.742;11.420;2023-07-09T07:43:27;11.57;;;10.73;;
8584;SDS011;7180;52.742;11.420;2023-07-09T07:45:53;11.00;;;10.30;;
8584;SDS011;7180;52.742;11.420;2023-07-09T07:48:18;10.85;;;10.25;;
8584;SDS011;7180;52.742;11.420;2023-07-09T07:50:44;11.60;;;10.90;;
8584;SDS011;7180;52.742;11.420;2023-07-09T07:53:13;11.63;;;10.90;;
8584;SDS011;7180;52.742;11.420;2023-07-09T07:55:39;11.43;;;10.63;;
8584;SDS011;7180;52.742;11.420;2023-07-09T07:58:05;10.93;;;10.32;;
8584;SDS011;7180;52.742;11.420;2023-07-09T08:00:30;11.27;;;10.48;;
8584;SDS011;7180;52.742;11.420;2023-07-09T08:02:56;11.30;;;10.60;;
8584;SDS011;7180;52.742;11.420;2023-07-09T08:05:22;10.82;;;10.13;;
8584;SDS011;7180;52.742;11.420;2023-07-09T08:07:48;10.88;;;10.20;;
8584;SDS011;7180;52.742;11.420;2023-07-09T08:10:14;11.10;;;10.32;;
8584;SDS011;7180;52.742;11.420;2023-07-09T08:12:40;11.18;;;10.38;;
8584;SDS011;7180;52.742;11.420;2023-07-09T08:15:06;11.52;;;10.60;;
8584;SDS011;7180;52.742;11.420;2023-07-09T08:17:32;10.60;;;9.90;;
8584;SDS011;7180;52.742;11.420;2023-07-09T08:19:57;11.18;;;10.48;;
8584;SDS011;7180;52.742;11.420;2023-07-09T08:22:23;11.25;;;10.55;;
8584;SDS011;7180;52.742;11.420;2023-07-09T08:24:49;11.00;;;10.40;;
8584;SDS011;7180;52.742;11.420;2023-07-09T08:27:15;10.93;;;10.30;;
8584;SDS011;7180;52.742;11.420;2023-07-09T08:29:40;10.57;;;9.88;;
8584;SDS011;7180;52.742;11.420;2023-07-09T08:32:07;10.70;;;10.10;;
8584;SDS011;7180;52.742;11.420;2023-07-09T08:34:33;10.70;;;10.02;;
8584;SDS011;7180;52.742;11.420;2023-07-09T08:36:58;11.30;;;10.60;;
8584;SDS011;7180;52.742;11.420;2023-07-09T08:39:24;11.35;;;10.57;;
8584;SDS011;7180;52.742;11.420;2023-07-09T08:41:52;10.77;;;10.07;;
8584;SDS011;7180;52.742;11.420;2023-07-09T08:50:13;10.35;;;9.75;;
8584;SDS011;7180;52.742;11.420;2023-07-09T08:52:42;11.05;;;10.25;;
8584;SDS011;7180;52.742;11.420;2023-07-09T08:55:10;18.77;;;17.27;;
8584;SDS011;7180;52.742;11.420;2023-07-09T08:57:44;11.60;;;10.90;;
8584;SDS011;7180;52.742;11.420;2023-07-09T09:05:39;11.00;;;10.32;;
8584;SDS011;7180;52.742;11.420;2023-07-09T09:10:44;10.63;;;10.02;;
8584;SDS011;7180;52.742;11.420;2023-07-09T09:13:13;10.82;;;10.13;;
8584;SDS011;7180;52.742;11.420;2023-07-09T09:15:44;10.88;;;10.20;;
8584;SDS011;7180;52.742;11.420;2023-07-09T09:20:37;10.48;;;9.77;;
8584;SDS011;7180;52.742;11.420;2023-07-09T09:23:15;10.00;;;9.43;;
8584;SDS011;7180;52.742;11.420;2023-07-09T09:25:41;10.18;;;9.52;;
8584;SDS011;7180;52.742;11.420;2023-07-09T09:28:12;10.57;;;9.93;;
8584;SDS011;7180;52.742;11.420;2023-07-09T09:30:39;10.30;;;9.70;;
8584;SDS011;7180;52.742;11.420;2023-07-09T09:33:09;10.30;;;9.70;;
8584;SDS011;7180;52.742;11.420;2023-07-09T09:35:41;10.15;;;9.45;;
8584;SDS011;7180;52.742;11.420;2023-07-09T09:38:11;10.10;;;9.40;;
8584;SDS011;7180;52.742;11.420;2023-07-09T09:40:38;10.13;;;9.50;;
8584;SDS011;7180;52.742;11.420;2023-07-09T09:43:09;10.25;;;9.65;;
8584;SDS011;7180;52.742;11.420;2023-07-09T09:45:39;9.82;;;9.32;;
8584;SDS011;7180;52.742;11.420;2023-07-09T09:48:27;10.02;;;9.43;;
8584;SDS011;7180;52.742;11.420;2023-07-09T09:50:55;9.68;;;9.18;;
8584;SDS011;7180;52.742;11.420;2023-07-09T09:53:25;10.18;;;9.57;;
8584;SDS011;7180;52.742;11.420;2023-07-09T09:55:53;9.80;;;9.20;;
8584;SDS011;7180;52.742;11.420;2023-07-09T09:58:19;9.95;;;9.15;;
8584;SDS011;7180;52.742;11.420;2023-07-09T10:00:50;9.63;;;8.98;;
8584;SDS011;7180;52.742;11.420;2023-07-09T10:03:17;9.73;;;9.23;;
8584;SDS011;7180;52.742;11.420;2023-07-09T10:08:20;10.05;;;9.45;;
8584;SDS011;7180;52.742;11.420;2023-07-09T10:11:53;10.60;;;9.82;;
8584;SDS011;7180;52.742;11.420;2023-07-09T10:14:02;10.13;;;9.52;;
8584;SDS011;7180;52.742;11.420;2023-07-09T10:16:36;9.75;;;9.25;;
8584;SDS011;7180;52.742;11.420;2023-07-09T10:19:25;10.32;;;9.70;;
8584;SDS011;7180;52.742;11.420;2023-07-09T10:22:04;10.68;;;10.05;;
8584;SDS011;7180;52.742;11.420;2023-07-09T10:27:09;10.48;;;9.88;;
8584;SDS011;7180;52.742;11.420;2023-07-09T10:35:27;11.10;;;10.40;;
8584;SDS011;7180;52.742;11.420;2023-07-09T10:41:06;10.98;;;10.18;;
8584;SDS011;7180;52.742;11.420;2023-07-09T10:43:36;10.35;;;9.75;;
8584;SDS011;7180;52.742;11.420;2023-07-09T10:46:13;10.40;;;9.70;;
8584;SDS011;7180;52.742;11.420;2023-07-09T10:48:45;10.40;;;9.73;;
8584;SDS011;7180;52.742;11.420;2023-07-09T10:53:45;10.32;;;9.63;;
8584;SDS011;7180;52.742;11.420;2023-07-09T10:56:22;10.13;;;9.63;;
8584;SDS011;7180;52.742;11.420;2023-07-09T10:59:05;11.02;;;10.23;;
8584;SDS011;7180;52.742;11.420;2023-07-09T11:01:45;10.95;;;10.25;;
8584;SDS011;7180;52.742;11.420;2023-07-09T11:07:12;10.88;;;10.07;;
8584;SDS011;7180;52.742;11.420;2023-07-09T11:09:42;10.88;;;10.18;;
8584;SDS011;7180;52.742;11.420;2023-07-09T11:12:18;10.35;;;9.75;;
8584;SDS011;7180;52.742;11.420;2023-07-09T11:14:50;10.80;;;10.10;;
8584;SDS011;7180;52.742;11.420;2023-07-09T11:17:20;10.00;;;9.40;;
8584;SDS011;7180;52.742;11.420;2023-07-09T11:20:16;10.20;;;9.60;;
8584;SDS011;7180;52.742;11.420;2023-07-09T11:22:41;10.50;;;9.90;;
8584;SDS011;7180;52.742;11.420;2023-07-09T11:27:31;10.15;;;9.55;;
8584;SDS011;7180;52.742;11.420;2023-07-09T11:29:58;10.57;;;9.98;;
8584;SDS011;7180;52.742;11.420;2023-07-09T11:32:28;10.20;;;9.50;;
8584;SDS011;7180;52.742;11.420;2023-07-09T11:34:54;10.25;;;9.55;;
8584;SDS011;7180;52.742;11.420;2023-07-09T11:37:32;10.15;;;9.55;;
8584;SDS011;7180;52.742;11.420;2023-07-09T11:40:11;10.25;;;9.55;;
8584;SDS011;7180;52.742;11.420;2023-07-09T11:42:49;10.15;;;9.48;;
8584;SDS011;7180;52.742;11.420;2023-07-09T11:45:16;11.18;;;10.20;;
8584;SDS011;7180;52.742;11.420;2023-07-09T11:47:46;9.88;;;9.30;;
8584;SDS011;7180;52.742;11.420;2023-07-09T11:50:22;10.55;;;9.85;;
8584;SDS011;7180;52.742;11.420;2023-07-09T11:52:51;10.52;;;9.82;;
8584;SDS011;7180;52.742;11.420;2023-07-09T11:55:27;10.48;;;9.80;;
8584;SDS011;7180;52.742;11.420;2023-07-09T11:58:06;10.48;;;9.68;;
8584;SDS011;7180;52.742;11.420;2023-07-09T12:00:42;10.43;;;9.75;;
8584;SDS011;7180;52.742;11.420;2023-07-09T12:03:19;10.65;;;10.05;;
8584;SDS011;7180;52.742;11.420;2023-07-09T12:05:50;10.77;;;9.98;;
8584;SDS011;7180;52.742;11.420;2023-07-09T12:08:17;10.60;;;10.00;;
8584;SDS011;7180;52.742;11.420;2023-07-09T12:10:47;10.40;;;9.80;;
8584;SDS011;7180;52.742;11.420;2023-07-09T12:13:13;10.43;;;9.77;;
8584;SDS011;7180;52.742;11.420;2023-07-09T12:15:39;11.50;;;10.60;;
8584;SDS011;7180;52.742;11.420;2023-07-09T12:18:12;11.00;;;10.27;;
8584;SDS011;7180;52.742;11.420;2023-07-09T12:20:39;10.98;;;10.27;;
8584;SDS011;7180;52.742;11.420;2023-07-09T12:23:22;10.68;;;10.07;;
8584;SDS011;7180;52.742;11.420;2023-07-09T12:25:52;10.98;;;10.38;;
8584;SDS011;7180;52.742;11.420;2023-07-09T12:28:19;10.43;;;9.82;;
8584;SDS011;7180;52.742;11.420;2023-07-09T12:30:46;11.32;;;10.63;;
8584;SDS011;7180;52.742;11.420;2023-07-09T12:33:15;10.95;;;10.35;;
8584;SDS011;7180;52.742;11.420;2023-07-09T12:35:42;11.10;;;10.40;;
8584;SDS011;7180;52.742;11.420;2023-07-09T12:38:16;11.40;;;10.70;;
8584;SDS011;7180;52.742;11.420;2023-07-09T12:40:44;11.02;;;10.23;;
8584;SDS011;7180;52.742;11.420;2023-07-09T12:43:10;10.88;;;10.18;;
8584;SDS011;7180;52.742;11.420;2023-07-09T12:45:36;11.18;;;10.30;;
8584;SDS011;7180;52.742;11.420;2023-07-09T12:48:02;11.07;;;10.38;;
8584;SDS011;7180;52.742;11.420;2023-07-09T12:50:29;10.63;;;9.93;;
8584;SDS011;7180;52.742;11.420;2023-07-09T12:52:55;10.50;;;9.90;;
8584;SDS011;7180;52.742;11.420;2023-07-09T12:55:25;10.60;;;10.00;;
8584;SDS011;7180;52.742;11.420;2023-07-09T12:57:55;10.60;;;10.00;;
8584;SDS011;7180;52.742;11.420;2023-07-09T13:00:21;11.20;;;10.50;;
8584;SDS011;7180;52.742;11.420;2023-07-09T13:02:53;11.30;;;10.40;;
8584;SDS011;7180;52.742;11.420;2023-07-09T13:05:22;10.95;;;10.25;;
8584;SDS011;7180;52.742;11.420;2023-07-09T13:07:50;11.73;;;10.98;;
8584;SDS011;7180;52.742;11.420;2023-07-09T13:10:40;11.05;;;10.35;;
8584;SDS011;7180;52.742;11.420;2023-07-09T13:13:10;10.95;;;10.25;;
8584;SDS011;7180;52.742;11.420;2023-07-09T13:18:03;10.50;;;9.80;;
8584;SDS011;7180;52.742;11.420;2023-07-09T13:20:30;11.13;;;10.25;;
8584;SDS011;7180;52.742;11.420;2023-07-09T13:22:58;10.88;;;10.18;;
8584;SDS011;7180;52.742;11.420;2023-07-09T13:25:23;11.70;;;10.85;;
8584;SDS011;7180;52.742;11.420;2023-07-09T13:27:49;11.50;;;10.80;;
8584;SDS011;7180;52.742;11.420;2023-07-09T13:30:15;11.35;;;10.60;;
8584;SDS011;7180;52.742;11.420;2023-07-09T13:32:40;10.85;;;10.15;;
8584;SDS011;7180;52.742;11.420;2023-07-09T13:35:16;10.65;;;10.05;;
8584;SDS011;7180;52.742;11.420;2023-07-09T13:37:44;10.95;;;10.35;;
8584;SDS011;7180;52.742;11.420;2023-07-09T13:40:11;11.30;;;10.60;;
8584;SDS011;7180;52.742;11.420;2023-07-09T13:42:41;11.30;;;10.60;;
8584;SDS011;7180;52.742;11.420;2023-07-09T13:45:15;11.40;;;10.70;;
8584;SDS011;7180;52.742;11.420;2023-07-09T13:47:51;11.27;;;10.55;;
8584;SDS011;7180;52.742;11.420;2023-07-09T13:50:18;10.95;;;10.32;;
8584;SDS011;7180;52.742;11.420;2023-07-09T13:52:44;10.88;;;10.25;;
8584;SDS011;7180;52.742;11.420;2023-07-09T13:55:18;11.40;;;10.70;;
8584;SDS011;7180;52.742;11.420;2023-07-09T13:57:46;11.00;;;10.32;;
8584;SDS011;7180;52.742;11.420;2023-07-09T14:00:12;11.13;;;10.32;;
8584;SDS011;7180;52.742;11.420;2023-07-09T14:02:38;10.93;;;10.27;;
8584;SDS011;7180;52.742;11.420;2023-07-09T14:05:05;10.82;;;10.02;;
8584;SDS011;7180;52.742;11.420;2023-07-09T14:07:33;10.90;;;10.30;;
8584;SDS011;7180;52.742;11.420;2023-07-09T14:10:01;10.90;;;10.30;;
8584;SDS011;7180;52.742;11.420;2023-07-09T14:12:27;11.18;;;10.48;;
8584;SDS011;7180;52.742;11.420;2023-07-09T14:14:56;11.25;;;10.43;;
8584;SDS011;7180;52.742;11.420;2023-07-09T14:17:24;11.05;;;10.27;;
8584;SDS011;7180;52.742;11.420;2023-07-09T14:19:50;10.50;;;9.90;;
8584;SDS011;7180;52.742;11.420;2023-07-09T14:22:35;10.90;;;10.20;;
8584;SDS011;7180;52.742;11.420;2023-07-09T14:25:03;10.30;;;9.65;;
8584;SDS011;7180;52.742;11.420;2023-07-09T14:27:29;10.73;;;9.93;;
8584;SDS011;7180;52.742;11.420;2023-07-09T14:29:55;10.77;;;10.18;;
8584;SDS011;7180;52.742;11.420;2023-07-09T14:32:42;10.93;;;10.02;;
8584;SDS011;7180;52.742;11.420;2023-07-09T14:35:10;10.55;;;9.75;;
8584;SDS011;7180;52.742;11.420;2023-07-09T14:37:36;10.27;;;9.68;;
8584;SDS011;7180;52.742;11.420;2023-07-09T14:40:01;11.30;;;10.60;;
8584;SDS011;7180;52.742;11.420;2023-07-09T14:42:29;11.73;;;11.02;;
8584;SDS011;7180;52.742;11.420;2023-07-09T14:44:55;11.20;;;10.50;;
8584;SDS011;7180;52.742;11.420;2023-07-09T14:47:21;11.52;;;10.82;;
8584;SDS011;7180;52.742;11.420;2023-07-09T14:49:46;10.95;;;10.25;;
8584;SDS011;7180;52.742;11.420;2023-07-09T14:52:14;11.02;;;10.32;;
8584;SDS011;7180;52.742;11.420;2023-07-09T14:54:42;11.60;;;10.90;;
8584;SDS011;7180;52.742;11.420;2023-07-09T14:57:13;11.80;;;10.90;;
8584;SDS011;7180;52.742;11.420;2023-07-09T14:59:44;11.63;;;10.77;;
8584;SDS011;7180;52.742;11.420;2023-07-09T15:02:23;10.98;;;10.38;;
8584;SDS011;7180;52.742;11.420;2023-07-09T15:04:56;11.40;;;10.70;;
8584;SDS011;7180;52.742;11.420;2023-07-09T15:07:22;11.70;;;10.90;;
8584;SDS011;7180;52.742;11.420;2023-07-09T15:09:47;11.77;;;10.88;;
8584;SDS011;7180;52.742;11.420;2023-07-09T15:12:15;11.50;;;10.80;;
8584;SDS011;7180;52.742;11.420;2023-07-09T15:14:44;11.60;;;10.70;;
8584;SDS011;7180;52.742;11.420;2023-07-09T15:17:12;12.10;;;11.30;;
8584;SDS011;7180;52.742;11.420;2023-07-09T15:19:38;11.55;;;10.80;;
8584;SDS011;7180;52.742;11.420;2023-07-09T15:22:03;10.90;;;10.30;;
8584;SDS011;7180;52.742;11.420;2023-07-09T15:24:30;11.35;;;10.65;;
8584;SDS011;7180;52.742;11.420;2023-07-09T15:26:57;10.82;;;10.02;;
8584;SDS011;7180;52.742;11.420;2023-07-09T15:29:25;11.00;;;10.20;;
8584;SDS011;7180;52.742;11.420;2023-07-09T15:31:51;10.55;;;9.95;;
8584;SDS011;7180;52.742;11.420;2023-07-09T15:34:16;10.70;;;10.00;;
8584;SDS011;7180;52.742;11.420;2023-07-09T15:36:46;10.85;;;10.15;;